Time;durP1;ratioP1;P1;durP2;ratioP2;P2;SDS_P1;SDS_P2;PMS_P1;PMS_P2;Temp;Humidity;BMP_temperature;BMP_pressure;BME280_temperature;BME280_humidity;BME280_pressure;Samples;Min_cycle;Max_cycle;Signal;HPM_P1;HPM_P2
2024/04/24 00:01:28;;;;;;;;;21.50;19.00;;;;;9.25;100.00;98315.41;6276468;20;2836715;-50
2024/04/24 00:03:54;;;;;;;;;17.50;17.50;;;;;9.13;100.00;98301.97;6280223;20;2820087;-47
2024/04/24 00:06:21;;;;;;;;;17.50;17.00;;;;;9.30;100.00;98298.00;6274077;20;2496124;-51
2024/04/24 00:08:49;;;;;;;;;17.33;17.33;;;;;9.37;100.00;98303.72;6274607;20;3562764;-47
2024/04/24 00:11:20;;;;;;;;;20.00;20.00;;;;;9.44;100.00;98299.56;6275458;20;2840908;-47
2024/04/24 00:13:47;;;;;;;;;24.50;20.00;;;;;9.34;100.00;98296.75;6276433;20;2840903;-47
2024/04/24 00:16:13;;;;;;;;;20.50;20.50;;;;;9.08;100.00;98297.97;6274554;20;2830523;-48
2024/04/24 00:18:41;;;;;;;;;14.00;13.00;;;;;9.26;100.00;98293.84;6274799;20;3510789;-47
2024/04/24 00:21:10;;;;;;;;;22.00;20.00;;;;;9.42;100.00;98296.16;6307022;20;2839827;-47
2024/04/24 00:23:37;;;;;;;;;19.67;19.67;;;;;9.47;100.00;98296.66;6275934;20;3573144;-48
2024/04/24 00:26:05;;;;;;;;;20.33;18.67;;;;;9.41;100.00;98295.31;6278230;20;2835763;-49
2024/04/24 00:28:32;;;;;;;;;18.00;18.00;;;;;8.99;100.00;98295.03;6305125;20;2837892;-50
2024/04/24 00:31:00;;;;;;;;;19.00;18.00;;;;;9.29;100.00;98292.75;6273760;20;2831534;-49
2024/04/24 00:33:27;;;;;;;;;17.00;17.00;;;;;9.37;100.00;98285.84;6274306;20;2836701;-50
2024/04/24 00:35:54;;;;;;;;;20.00;20.00;;;;;9.18;100.00;98270.34;6274419;20;2500320;-52
2024/04/24 00:38:21;;;;;;;;;21.00;17.33;;;;;9.15;100.00;98275.09;6274884;20;3567468;-52
2024/04/24 00:40:49;;;;;;;;;21.00;20.00;;;;;9.38;100.00;98268.78;6274254;20;2846192;-50
2024/04/24 00:43:16;;;;;;;;;21.00;17.00;;;;;9.47;100.00;98271.69;6274585;20;2500397;-52
2024/04/24 00:45:43;;;;;;;;;19.00;19.00;;;;;9.44;100.00;98273.63;6276235;20;3566047;-47
2024/04/24 00:48:12;;;;;;;;;11.60;10.60;;;;;8.95;100.00;98271.28;6298966;20;2792353;-51
2024/04/24 00:50:41;;;;;;;;;14.67;14.67;;;;;9.02;100.00;98262.66;6273907;20;3529437;-50
2024/04/24 00:53:08;;;;;;;;;17.00;17.00;;;;;9.34;100.00;98267.31;6275227;20;3557553;-48
2024/04/24 00:55:35;;;;;;;;;17.00;16.00;;;;;9.41;100.00;98273.88;6270742;20;2500230;-49
2024/04/24 00:58:04;;;;;;;;;21.00;19.50;;;;;9.10;100.00;98258.53;6275244;20;2835860;-47
2024/04/24 01:00:30;;;;;;;;;19.50;18.00;;;;;9.11;100.00;98260.22;6273401;20;2835716;-49
2024/04/24 01:02:57;;;;;;;;;18.00;18.00;;;;;9.18;100.00;98256.94;6276657;20;2833664;-48
2024/04/24 01:05:25;;;;;;;;;22.00;19.00;;;;;8.92;100.00;98256.31;6274866;20;2842005;-51
2024/04/24 01:07:51;;;;;;;;;19.00;18.00;;;;;8.84;100.00;98249.84;6272475;20;2496113;-51
2024/04/24 01:10:19;;;;;;;;;19.00;19.00;;;;;8.73;100.00;98245.34;6272021;20;2500290;-48
2024/04/24 01:12:48;;;;;;;;;21.50;20.00;;;;;9.10;100.00;98245.16;6275013;20;2840932;-48
2024/04/24 01:15:17;;;;;;;;;16.67;15.67;;;;;8.96;100.00;98228.34;6272063;20;3540874;-51
2024/04/24 01:17:50;;;;;;;;;21.50;21.00;;;;;9.34;100.00;98234.31;6301978;20;2500296;-47
2024/04/24 01:20:26;;;;;;;;;24.00;23.50;;;;;9.27;100.00;98235.75;6272485;20;2844078;-50
2024/04/24 01:23:28;;;;;;;;;20.00;18.00;;;;;8.92;100.00;98232.22;6270251;20;2496272;-47
2024/04/24 01:26:12;;;;;;;;;22.00;22.00;;;;;8.92;100.00;98232.22;6272806;20;2496550;-49
2024/04/24 01:28:40;;;;;;;;;18.67;16.67;;;;;8.95;100.00;98228.44;6272854;20;3562784;-49
2024/04/24 01:31:07;;;;;;;;;17.00;17.00;;;;;9.16;100.00;98228.59;6271544;20;2494080;-50
2024/04/24 01:33:34;;;;;;;;;22.50;19.50;;;;;9.10;100.00;98229.09;6270252;20;2500365;-50
2024/04/24 01:36:01;;;;;;;;;18.00;18.00;;;;;9.21;100.00;98237.09;6272334;20;2835697;-52
2024/04/24 01:38:28;;;;;;;;;23.50;20.50;;;;;9.04;100.00;98237.59;6267461;20;2500327;-50
2024/04/24 01:40:56;;;;;;;;;16.00;16.00;;;;;9.17;100.00;98233.00;6272521;20;3558725;-51
2024/04/24 01:43:23;;;;;;;;;19.50;19.50;;;;;9.23;100.00;98232.50;6305076;20;2841987;-50
2024/04/24 01:45:50;;;;;;;;;21.00;18.00;;;;;9.20;100.00;98244.28;6273254;20;2661618;-50
2024/04/24 01:48:16;;;;;;;;;16.50;15.50;;;;;9.27;100.00;98231.28;6273963;20;2819118;-47
2024/04/24 01:50:44;;;;;;;;;21.00;21.00;;;;;9.33;100.00;98235.31;6274410;20;3577484;-47
2024/04/24 01:53:11;;;;;;;;;19.00;19.00;;;;;9.27;100.00;98239.31;6273604;20;2830911;-51
2024/04/24 01:55:39;;;;;;;;;20.00;18.00;;;;;9.00;100.00;98237.84;6270414;20;3564376;-49
2024/04/24 01:58:06;;;;;;;;;20.00;18.00;;;;;9.10;100.00;98229.94;6270256;20;3563799;-50
2024/04/24 02:00:33;;;;;;;;;21.00;19.50;;;;;9.16;100.00;98226.78;6266922;20;2492017;-48
2024/04/24 02:03:01;;;;;;;;;19.50;17.50;;;;;9.13;100.00;98227.00;6269514;20;2829431;-52
2024/04/24 02:05:27;;;;;;;;;24.50;18.50;;;;;9.27;100.00;98225.06;6266500;20;2496151;-52
2024/04/24 02:07:54;;;;;;;;;16.00;15.00;;;;;9.18;100.00;98221.28;6271876;20;2810815;-48
2024/04/24 02:10:21;;;;;;;;;18.00;16.67;;;;;9.21;100.00;98223.72;6270406;20;3548190;-53
2024/04/24 02:12:48;;;;;;;;;17.50;17.00;;;;;9.17;100.00;98227.63;6272717;20;2825425;-54
2024/04/24 02:15:15;;;;;;;;;18.00;17.00;;;;;9.04;100.00;98218.88;6274578;20;2823268;-49
2024/04/24 02:17:41;;;;;;;;;22.00;17.00;;;;;9.15;100.00;98224.22;6272789;20;2834657;-51
2024/04/24 02:20:09;;;;;;;;;16.50;15.50;;;;;9.21;100.00;98223.72;6271008;20;2500341;-51
2024/04/24 02:22:38;;;;;;;;;17.67;15.33;;;;;9.18;100.00;98222.13;6273627;20;3545193;-54
2024/04/24 02:27:52;;;;;;;;;17.00;16.00;;;;;9.14;100.00;98206.47;6302025;20;2812783;-49
2024/04/24 02:30:20;;;;;;;;;16.33;14.67;;;;;9.10;100.00;98205.00;6272184;20;3533631;-50
2024/04/24 02:32:47;;;;;;;;;18.50;18.50;;;;;9.09;100.00;98203.28;6305063;20;2835699;-49
2024/04/24 02:35:14;;;;;;;;;19.50;19.50;;;;;8.89;100.00;98200.34;6274889;20;2491982;-54
2024/04/24 02:37:41;;;;;;;;;16.00;16.00;;;;;8.95;100.00;98194.53;6277468;20;3543174;-51
2024/04/24 02:40:08;;;;;;;;;17.00;16.00;;;;;9.12;100.00;98203.91;6307751;20;2494161;-51
2024/04/24 02:42:36;;;;;;;;;17.00;17.00;;;;;9.15;100.00;98205.47;6275925;20;3554536;-50
2024/04/24 02:45:03;;;;;;;;;20.00;17.50;;;;;9.17;100.00;98203.53;6271691;20;2498231;-50
2024/04/24 02:47:30;;;;;;;;;17.00;16.00;;;;;9.17;100.00;98211.56;6278109;20;2816957;-46
2024/04/24 02:49:56;;;;;;;;;22.00;18.00;;;;;9.17;100.00;98216.91;6274977;20;2485657;-48
2024/04/24 02:52:24;;;;;;;;;21.00;18.00;;;;;9.17;100.00;98211.56;6276609;20;3565999;-47
2024/04/24 02:54:51;;;;;;;;;14.50;14.50;;;;;9.19;100.00;98209.63;6279266;20;2810774;-50
2024/04/24 02:57:17;;;;;;;;;16.50;16.50;;;;;9.20;100.00;98205.97;6276114;20;2823163;-47
2024/04/24 02:59:44;;;;;;;;;15.50;15.50;;;;;9.09;100.00;98197.94;6280186;20;2805548;-52
2024/04/24 03:02:10;;;;;;;;;17.00;17.00;;;;;9.19;100.00;98193.56;6276743;20;2491947;-50
2024/04/24 03:04:38;;;;;;;;;16.67;16.67;;;;;9.18;100.00;98199.88;6278070;20;3560680;-50
2024/04/24 03:07:04;;;;;;;;;17.00;17.00;;;;;9.17;100.00;98207.06;6278202;20;2826398;-50
2024/04/24 03:09:31;;;;;;;;;16.50;14.50;;;;;9.12;100.00;98208.41;6278004;20;2813798;-48
2024/04/24 03:11:58;;;;;;;;;18.00;15.00;;;;;9.21;100.00;98210.34;6278202;20;3544811;-46
2024/04/24 03:14:26;;;;;;;;;17.67;17.00;;;;;9.19;100.00;98205.13;6277628;20;2831542;-47
2024/04/24 03:16:52;;;;;;;;;19.00;16.50;;;;;9.16;100.00;98204.50;6305237;20;2489959;-48
2024/04/24 03:19:19;;;;;;;;;16.00;16.00;;;;;9.17;100.00;98200.84;6278097;20;2813979;-46
2024/04/24 03:21:46;;;;;;;;;18.50;17.50;;;;;9.13;100.00;98199.38;6277712;20;3497171;-47
2024/04/24 03:24:13;;;;;;;;;17.00;17.00;;;;;9.13;100.00;98202.06;6307351;20;2492014;-49
2024/04/24 03:26:40;;;;;;;;;19.00;17.00;;;;;9.16;100.00;98200.00;6278382;20;2825275;-48
2024/04/24 03:29:06;;;;;;;;;18.00;16.00;;;;;9.10;100.00;98194.28;6278433;20;2821154;-48
2024/04/24 03:31:36;;;;;;;;;16.00;15.00;;;;;9.01;100.00;98202.06;6278814;20;2820136;-49
2024/04/24 03:34:03;;;;;;;;;16.50;16.50;;;;;9.01;100.00;98202.06;6277605;20;2819026;-49
2024/04/24 03:36:30;;;;;;;;;18.67;16.00;;;;;9.06;100.00;98198.16;6274863;20;3548201;-46
2024/04/24 03:38:58;;;;;;;;;18.00;16.67;;;;;9.07;100.00;98195.38;6305959;20;3551320;-47
2024/04/24 03:41:24;;;;;;;;;16.00;15.00;;;;;9.06;100.00;98198.16;6279975;20;2810764;-51
2024/04/24 03:43:52;;;;;;;;;21.00;18.33;;;;;8.97;100.00;98194.41;6277865;20;3572106;-47
2024/04/24 03:46:18;;;;;;;;;16.00;16.00;;;;;9.05;100.00;98191.97;6275530;20;2494251;-52
2024/04/24 03:48:45;;;;;;;;;19.50;18.50;;;;;9.01;100.00;98186.00;6278673;20;2838931;-47
2024/04/24 03:51:12;;;;;;;;;18.33;15.67;;;;;9.00;100.00;98192.34;6275904;20;3555968;-51
2024/04/24 03:53:39;;;;;;;;;15.50;14.00;;;;;9.01;100.00;98193.19;6278488;20;2811849;-49
2024/04/24 03:56:08;;;;;;;;;20.67;17.67;;;;;8.98;100.00;98191.59;6274326;20;3566954;-51
2024/04/24 03:58:35;;;;;;;;;18.00;16.67;;;;;9.00;100.00;98188.78;6275363;20;3562813;-48
2024/04/24 04:01:02;;;;;;;;;19.50;15.50;;;;;8.92;100.00;98186.72;6273474;20;2498170;-51
2024/04/24 04:03:28;;;;;;;;;18.50;18.50;;;;;8.89;100.00;98186.97;6274236;20;2500410;-51
2024/04/24 04:05:56;;;;;;;;;17.00;17.00;;;;;8.95;100.00;98182.94;6277248;20;3570084;-48
2024/04/24 04:08:24;;;;;;;;;21.00;18.33;;;;;8.97;100.00;98194.41;6275541;20;3566047;-48
2024/04/24 04:10:51;;;;;;;;;20.00;19.50;;;;;8.98;100.00;98196.13;6275019;20;2492362;-49
2024/04/24 04:13:18;;;;;;;;;22.67;18.00;;;;;8.95;100.00;98194.53;6276106;20;3581496;-48
2024/04/24 04:15:46;;;;;;;;;19.00;17.00;;;;;8.84;100.00;98193.66;6276638;20;3559760;-49
2024/04/24 04:18:12;;;;;;;;;18.00;18.00;;;;;8.94;100.00;98179.44;6277389;20;2829435;-48
2024/04/24 04:20:39;;;;;;;;;26.50;24.50;;;;;8.86;100.00;98187.22;6272621;20;2494072;-49
2024/04/24 04:23:07;;;;;;;;;15.00;15.00;;;;;8.96;100.00;98182.00;6274960;20;3524267;-52
2024/04/24 04:25:33;;;;;;;;;17.00;17.00;;;;;8.95;100.00;98186.50;6306814;20;2487976;-49
2024/04/24 04:28:01;;;;;;;;;21.00;19.00;;;;;8.94;100.00;98183.94;6271806;20;2489864;-49
2024/04/24 04:30:27;;;;;;;;;19.00;19.00;;;;;8.78;100.00;98184.28;6273212;20;2500379;-49
2024/04/24 04:32:55;;;;;;;;;20.00;20.00;;;;;8.78;100.00;98178.94;6275697;20;3562785;-47
2024/04/24 04:35:21;;;;;;;;;24.50;17.50;;;;;8.93;100.00;98180.41;6270524;20;2500242;-49
2024/04/24 04:37:48;;;;;;;;;19.50;19.50;;;;;8.76;100.00;98180.88;6274307;20;2496343;-51
2024/04/24 04:40:15;;;;;;;;;19.00;16.50;;;;;8.80;100.00;98185.03;6274488;20;2500401;-49
2024/04/24 04:42:42;;;;;;;;;19.00;17.50;;;;;8.99;100.00;98184.44;6275763;20;2831489;-48
2024/04/24 04:45:10;;;;;;;;;17.00;17.00;;;;;9.00;100.00;98188.78;6275227;20;3562748;-50
2024/04/24 04:47:36;;;;;;;;;17.00;17.00;;;;;8.93;100.00;98180.41;6276151;20;2496222;-53
2024/04/24 04:50:05;;;;;;;;;15.33;14.00;;;;;8.91;100.00;98174.31;6275563;20;3539893;-48
2024/04/24 04:52:32;;;;;;;;;17.00;17.00;;;;;8.99;100.00;98171.03;6304965;20;3558625;-49
2024/04/24 04:55:02;;;;;;;;;18.33;18.33;;;;;9.04;100.00;98176.03;6274079;20;3561733;-51
2024/04/24 04:57:29;;;;;;;;;21.33;18.33;;;;;9.05;100.00;98172.38;6275619;20;3567975;-48
2024/04/24 04:59:56;;;;;;;;;19.00;17.00;;;;;8.79;100.00;98175.28;6272004;20;2500283;-50
2024/04/24 05:02:22;;;;;;;;;17.00;17.00;;;;;8.99;100.00;98171.88;6274284;20;2829416;-47
2024/04/24 05:04:50;;;;;;;;;17.00;17.00;;;;;9.17;100.00;98166.88;6274220;20;3563889;-47
2024/04/24 05:07:16;;;;;;;;;18.50;18.50;;;;;9.19;100.00;98166.78;6275694;20;2496115;-50
2024/04/24 05:09:44;;;;;;;;;16.67;16.67;;;;;9.15;100.00;98174.19;6272697;20;3555588;-49
2024/04/24 05:12:11;;;;;;;;;23.50;16.50;;;;;9.15;100.00;98176.03;6273414;20;2496167;-52
2024/04/24 05:14:38;;;;;;;;;17.00;16.00;;;;;9.28;100.00;98168.72;6274327;20;3559639;-50
2024/04/24 05:17:07;;;;;;;;;14.50;14.50;;;;;9.23;100.00;98162.88;6303370;20;2630568;-52
2024/04/24 05:19:34;;;;;;;;;16.33;16.33;;;;;9.39;100.00;98163.31;6273099;20;3550741;-51
2024/04/24 05:22:02;;;;;;;;;18.67;18.67;;;;;9.44;100.00;98171.84;6278636;20;2836731;-53
2024/04/24 05:24:28;;;;;;;;;16.50;16.50;;;;;9.26;100.00;98170.66;6303617;20;2500332;-51
2024/04/24 05:29:40;;;;;;;;;19.00;16.00;;;;;9.16;100.00;98175.03;6270801;20;2500321;-53
2024/04/24 05:32:06;;;;;;;;;16.50;16.50;;;;;9.08;100.00;98175.66;6261571;20;2827407;-53
2024/04/24 05:34:34;;;;;;;;;17.67;15.00;;;;;9.23;100.00;98169.06;6272271;20;3550302;-50
2024/04/24 05:37:01;;;;;;;;;19.00;17.00;;;;;9.19;100.00;98164.09;6268489;20;3560661;-52
2024/04/24 05:39:29;;;;;;;;;17.00;16.00;;;;;9.11;100.00;98166.50;6268579;20;3567968;-54
2024/04/24 05:41:56;;;;;;;;;19.00;17.00;;;;;9.29;100.00;98167.72;6273131;20;2500294;-53
2024/04/24 05:44:27;;;;;;;;;24.00;19.33;;;;;9.23;100.00;98165.53;6273938;20;3575371;-52
2024/04/24 05:46:54;;;;;;;;;18.67;18.67;;;;;9.25;100.00;98170.78;6271900;20;3572144;-49
2024/04/24 05:49:21;;;;;;;;;19.00;18.00;;;;;9.15;100.00;98173.34;6273337;20;2833599;-50
2024/04/24 05:51:49;;;;;;;;;18.67;17.33;;;;;9.28;100.00;98171.38;6274380;20;3558606;-50
2024/04/24 05:54:16;;;;;;;;;16.00;16.00;;;;;9.20;100.00;98174.69;6273911;20;3515978;-53
2024/04/24 05:56:43;;;;;;;;;21.00;17.50;;;;;9.22;100.00;98172.72;6302457;20;3509691;-48
2024/04/24 05:59:11;;;;;;;;;15.50;15.50;;;;;9.45;100.00;98183.41;6303506;20;2808673;-49
2024/04/24 06:01:38;;;;;;;;;17.67;15.00;;;;;9.25;100.00;98187.69;6272175;20;3534748;-51
2024/04/24 06:04:06;;;;;;;;;16.00;16.00;;;;;9.22;100.00;98186.13;6302352;20;3548349;-52
2024/04/24 06:06:32;;;;;;;;;16.00;15.00;;;;;9.30;100.00;98185.50;6305604;20;2498296;-49
2024/04/24 06:09:00;;;;;;;;;18.67;15.33;;;;;9.08;100.00;98190.88;6280623;20;3554540;-49
2024/04/24 06:11:27;;;;;;;;;18.33;18.33;;;;;9.31;100.00;98186.34;6279117;20;3571100;-52
2024/04/24 06:13:55;;;;;;;;;16.67;14.33;;;;;9.39;100.00;98200.81;6280374;20;3544167;-50
2024/04/24 06:16:22;;;;;;;;;19.00;17.67;;;;;9.24;100.00;98194.00;6278247;20;3568419;-48
2024/04/24 06:18:50;;;;;;;;;14.00;14.00;;;;;9.08;100.00;98186.34;6277247;20;3541976;-49
2024/04/24 06:21:17;;;;;;;;;18.00;17.00;;;;;9.27;100.00;98184.88;6310686;20;2494603;-52
2024/04/24 06:23:43;;;;;;;;;19.00;19.00;;;;;9.50;100.00;98183.88;6278684;20;2496166;-51
2024/04/24 06:26:10;;;;;;;;;17.50;17.00;;;;;9.48;100.00;98182.28;6276688;20;2489875;-50
2024/04/24 06:28:38;;;;;;;;;17.50;17.00;;;;;9.67;100.00;98182.53;6278647;20;2829591;-49
2024/04/24 06:31:05;;;;;;;;;20.67;16.00;;;;;9.77;100.00;98187.94;6279232;20;3559674;-52
2024/04/24 06:33:32;;;;;;;;;17.00;16.00;;;;;9.85;100.00;98181.00;6287103;20;2500306;-51
2024/04/24 06:36:04;;;;;;;;;16.33;15.00;;;;;9.84;100.00;98198.03;6310307;20;3550277;-50
2024/04/24 06:38:31;;;;;;;;;18.00;17.00;;;;;9.80;100.00;98193.94;6275315;20;2489848;-50
2024/04/24 06:40:58;;;;;;;;;17.00;17.00;;;;;10.04;100.00;98179.47;6277228;20;2500342;-48
2024/04/24 06:43:25;;;;;;;;;18.50;17.00;;;;;10.17;100.00;98184.66;6277287;20;2498238;-48
2024/04/24 06:45:55;;;;;;;;;18.00;16.14;;;;;9.48;100.00;98180.50;6309988;20;2816997;-51
2024/04/24 06:48:22;;;;;;;;;22.00;22.00;;;;;9.98;100.00;98174.59;6308523;20;2849226;-49
2024/04/24 06:50:49;;;;;;;;;18.00;15.50;;;;;10.19;100.00;98180.00;6277512;20;2500342;-50
2024/04/24 06:53:16;;;;;;;;;17.00;17.00;;;;;10.12;100.00;98182.34;6278413;20;2832574;-51
2024/04/24 06:55:44;;;;;;;;;18.00;17.00;;;;;9.85;100.00;98186.38;6280346;20;2832591;-49
2024/04/24 06:58:11;;;;;;;;;17.00;13.00;;;;;10.22;100.00;98183.28;6277653;20;2796288;-47
2024/04/24 07:00:39;;;;;;;;;17.00;17.00;;;;;10.18;100.00;98184.50;6309088;20;2835731;-49
2024/04/24 07:03:05;;;;;;;;;19.50;19.50;;;;;10.41;100.00;98176.41;6276675;20;2500450;-47
2024/04/24 07:05:32;;;;;;;;;16.00;15.00;;;;;10.25;100.00;98177.66;6277407;20;2496160;-53
2024/04/24 07:07:59;;;;;;;;;18.00;18.00;;;;;10.42;100.00;98188.81;6283031;20;2837805;-53
2024/04/24 07:10:25;;;;;;;;;19.00;18.00;;;;;10.32;100.00;98183.38;6276516;20;2498364;-50
2024/04/24 07:12:52;;;;;;;;;14.50;14.50;;;;;10.36;100.00;98183.97;6281462;20;2816988;-51
2024/04/24 07:15:18;;;;;;;;;17.00;15.50;;;;;10.38;100.00;98179.34;6281514;20;2819038;-53
2024/04/24 07:17:46;;;;;;;;;16.00;15.67;;;;;10.12;100.00;98179.69;6274043;20;3553509;-48
2024/04/24 07:20:12;;;;;;;;;19.00;17.00;;;;;10.52;100.00;98173.63;6276474;20;2500313;-47
2024/04/24 07:22:40;;;;;;;;;18.00;18.00;;;;;10.62;100.00;98177.25;6278438;20;3571151;-50
2024/04/24 07:25:07;;;;;;;;;16.00;15.67;;;;;10.57;100.00;98181.31;6276689;20;3556520;-48
2024/04/24 07:27:34;;;;;;;;;18.00;16.50;;;;;10.72;100.00;98175.47;6276586;20;2500313;-46
2024/04/24 07:30:04;;;;;;;;;14.67;14.67;;;;;10.65;100.00;98176.97;6278712;20;3539866;-48
2024/04/24 07:32:32;;;;;;;;;15.67;15.33;;;;;10.76;100.00;98181.41;6309936;20;3545065;-47
2024/04/24 07:34:59;;;;;;;;;17.33;15.67;;;;;10.53;100.00;98191.44;6279422;20;3554441;-46
2024/04/24 07:37:27;;;;;;;;;14.33;14.00;;;;;10.33;100.00;98180.56;6274384;20;3531673;-47
2024/04/24 07:39:54;;;;;;;;;16.00;15.33;;;;;10.30;100.00;98188.88;6306897;20;3552365;-44
2024/04/24 07:42:22;;;;;;;;;18.33;18.33;;;;;10.58;100.00;98193.72;6277188;20;3575284;-51
2024/04/24 07:44:48;;;;;;;;;16.00;16.00;;;;;10.96;100.00;98180.53;6275153;20;2500382;-50
2024/04/24 07:47:16;;;;;;;;;18.67;16.67;;;;;11.14;100.00;98180.75;6277295;20;3563831;-43
2024/04/24 07:49:43;;;;;;;;;17.00;15.00;;;;;11.18;100.00;98189.38;6277312;20;2816992;-46
2024/04/24 07:52:12;;;;;;;;;18.00;16.67;;;;;11.26;100.00;98192.25;6277783;20;3564954;-46
2024/04/24 07:54:39;;;;;;;;;11.00;11.00;;;;;11.27;100.00;98183.22;6281601;20;2800285;-47
2024/04/24 07:57:06;;;;;;;;;15.67;15.33;;;;;11.16;100.00;98184.16;6276782;20;3552376;-48
2024/04/24 07:59:33;;;;;;;;;18.00;16.00;;;;;11.29;100.00;98183.91;6273732;20;2487831;-49
2024/04/24 08:02:01;;;;;;;;;17.00;17.00;;;;;11.47;100.00;98189.47;6279748;20;2834659;-49
2024/04/24 08:04:28;;;;;;;;;15.00;15.00;;;;;11.32;100.00;98189.03;6283719;20;2806550;-50
2024/04/24 08:06:55;;;;;;;;;15.33;15.00;;;;;11.25;100.00;98187.03;6276682;20;3539966;-48
2024/04/24 08:09:22;;;;;;;;;14.00;14.00;;;;;11.37;100.00;98189.47;6306991;20;2806662;-50
2024/04/24 08:11:49;;;;;;;;;14.67;14.67;;;;;11.09;100.00;98182.16;6279136;20;3531517;-51
2024/04/24 08:14:17;;;;;;;;;14.33;13.00;;;;;10.85;100.00;98190.50;6307509;20;3528533;-50
2024/04/24 08:16:44;;;;;;;;;16.00;16.00;;;;;10.88;100.00;98180.34;6308644;20;2825320;-50
2024/04/24 08:19:11;;;;;;;;;15.00;15.00;;;;;10.80;100.00;98193.59;6307021;20;2494055;-51
2024/04/24 08:21:38;;;;;;;;;16.33;14.33;;;;;10.80;100.00;98184.69;6276960;20;3538898;-51
2024/04/24 08:24:06;;;;;;;;;17.50;16.00;;;;;10.80;100.00;98184.69;6308629;20;2829494;-49
2024/04/24 08:26:34;;;;;;;;;16.00;15.33;;;;;10.98;100.00;98191.16;6275649;20;3547169;-47
2024/04/24 08:29:00;;;;;;;;;20.00;18.00;;;;;10.96;100.00;98199.31;6272953;20;2496127;-51
2024/04/24 08:31:27;;;;;;;;;17.00;16.00;;;;;10.91;100.00;98195.34;6276004;20;2829601;-50
2024/04/24 08:33:55;;;;;;;;;18.00;18.00;;;;;10.98;100.00;98197.38;6278824;20;2837850;-48
2024/04/24 08:36:22;;;;;;;;;19.00;17.00;;;;;10.80;100.00;98195.44;6276661;20;2828580;-50
2024/04/24 08:38:49;;;;;;;;;19.50;18.50;;;;;10.97;100.00;98189.44;6272321;20;2498334;-52
2024/04/24 08:41:16;;;;;;;;;16.00;16.00;;;;;10.86;100.00;98192.22;6280246;20;2500788;-47
2024/04/24 08:43:44;;;;;;;;;20.00;18.00;;;;;11.01;100.00;98190.03;6278730;20;2500447;-53
2024/04/24 08:46:12;;;;;;;;;15.00;15.00;;;;;11.03;100.00;98191.56;6307305;20;2793067;-49
2024/04/24 08:48:44;;;;;;;;;10.67;10.67;;;;;10.80;100.00;98179.31;6275249;20;2786839;-47
2024/04/24 08:51:13;;;;;;;;;17.00;17.00;;;;;11.00;100.00;98183.78;6306516;20;2494129;-48
2024/04/24 08:53:55;;;;;;;;;17.00;17.00;;;;;10.63;100.00;98178.09;6275150;20;2834794;-49
2024/04/24 08:56:26;;;;;;;;;18.50;18.00;;;;;10.95;100.00;98180.66;6276318;20;2496105;-50
2024/04/24 08:59:02;;;;;;;;;21.00;20.00;;;;;10.93;100.00;98180.81;6274979;20;2846171;-49
2024/04/24 09:01:35;;;;;;;;;20.50;19.00;;;;;10.96;100.00;98185.91;6275460;20;2830502;-51
2024/04/24 09:04:06;;;;;;;;;15.50;15.50;;;;;11.14;100.00;98193.34;6275173;20;2821153;-52
2024/04/24 09:06:38;;;;;;;;;16.50;16.50;;;;;11.45;100.00;98194.13;6274337;20;2819038;-53
2024/04/24 09:09:07;;;;;;;;;18.00;18.00;;;;;11.43;100.00;98196.13;6268089;20;2831800;-51
2024/04/24 09:11:35;;;;;;;;;16.67;16.33;;;;;11.25;100.00;98203.16;6270581;20;2832235;-50
2024/04/24 09:14:03;;;;;;;;;15.00;14.00;;;;;10.97;100.00;98194.81;6306314;20;2500273;-54
2024/04/24 09:16:36;;;;;;;;;17.50;17.00;;;;;10.77;100.00;98194.72;6272421;20;2491941;-52
2024/04/24 09:19:04;;;;;;;;;17.00;15.67;;;;;11.43;100.00;98194.28;6274997;20;3554427;-51
2024/04/24 09:21:32;;;;;;;;;15.00;15.00;;;;;11.68;100.00;98199.31;6276085;20;2500295;-49
2024/04/24 09:24:02;;;;;;;;;19.50;19.50;;;;;11.67;100.00;98203.84;6275631;20;2824272;-54
2024/04/24 09:26:30;;;;;;;;;17.50;17.50;;;;;11.68;100.00;98200.16;6274745;20;2839879;-53
2024/04/24 09:28:57;;;;;;;;;22.33;21.33;;;;;11.22;100.00;98193.50;6275531;20;2846172;-54
2024/04/24 09:31:25;;;;;;;;;16.50;16.50;;;;;11.23;100.00;98194.38;6302950;20;2825419;-54
2024/04/24 09:33:53;;;;;;;;;21.00;20.00;;;;;11.15;100.00;98193.19;6274507;20;2842979;-55
2024/04/24 09:36:20;;;;;;;;;21.00;19.50;;;;;10.83;100.00;98187.09;6273628;20;2844061;-54
2024/04/24 09:38:47;;;;;;;;;20.00;17.50;;;;;11.02;100.00;98195.25;6267190;20;2500299;-53
2024/04/24 09:41:14;;;;;;;;;19.67;17.00;;;;;10.86;100.00;98186.84;6274113;20;3563916;-53
2024/04/24 09:43:42;;;;;;;;;14.00;14.00;;;;;10.76;100.00;98184.94;6275061;20;3513851;-53
2024/04/24 09:46:09;;;;;;;;;13.50;13.50;;;;;11.21;100.00;98189.94;6310415;20;2791012;-54
2024/04/24 09:48:36;;;;;;;;;19.00;19.00;;;;;11.35;100.00;98187.91;6271641;20;2485809;-49
2024/04/24 09:51:09;;;;;;;;;18.00;14.00;;;;;10.98;100.00;98183.09;6274345;20;2817049;-50
2024/04/24 09:53:37;;;;;;;;;14.33;13.33;;;;;11.29;100.00;98178.53;6275953;20;2789971;-49
2024/04/24 09:56:22;;;;;;;;;13.33;13.33;;;;;11.39;100.00;98189.31;6306362;20;3525407;-47
2024/04/24 09:58:52;;;;;;;;;16.00;14.00;;;;;11.36;100.00;98184.22;6303068;20;3537781;-49
2024/04/24 10:01:23;;;;;;;;;14.00;14.00;;;;;11.09;100.00;98187.53;6309182;20;2797199;-51
2024/04/24 10:03:54;;;;;;;;;15.00;15.00;;;;;11.32;100.00;98190.84;6274731;20;2808680;-50
2024/04/24 10:06:23;;;;;;;;;17.33;17.33;;;;;11.45;100.00;98187.91;6276308;20;3563823;-50
2024/04/24 10:08:54;;;;;;;;;21.67;17.00;;;;;11.39;100.00;98183.94;6273730;20;3571183;-50
2024/04/24 10:11:34;;;;;;;;;15.00;15.00;;;;;11.30;100.00;98179.41;6273189;20;2795103;-48
2024/04/24 10:14:05;;;;;;;;;16.33;16.00;;;;;11.26;100.00;98183.34;6303969;20;3560794;-48
2024/04/24 10:16:32;;;;;;;;;13.50;13.50;;;;;11.20;100.00;98184.72;6309126;20;2799239;-51
2024/04/24 10:19:02;;;;;;;;;14.00;12.33;;;;;11.23;100.00;98189.00;6271327;20;2801637;-47
2024/04/24 10:21:31;;;;;;;;;16.33;14.67;;;;;11.29;100.00;98193.81;6305402;20;3533691;-49
2024/04/24 10:24:00;;;;;;;;;18.00;18.00;;;;;11.31;100.00;98191.84;6273902;20;2838825;-51
2024/04/24 10:26:29;;;;;;;;;19.00;19.00;;;;;11.16;100.00;98189.53;6273793;20;2828472;-52
2024/04/24 10:28:57;;;;;;;;;19.00;17.00;;;;;11.12;100.00;98185.41;6274364;20;2825309;-47
2024/04/24 10:31:26;;;;;;;;;21.50;20.00;;;;;11.28;100.00;98192.97;6273676;20;2842055;-48
2024/04/24 10:33:55;;;;;;;;;19.00;18.50;;;;;11.16;100.00;98185.97;6273825;20;2834108;-48
2024/04/24 10:36:22;;;;;;;;;19.00;19.00;;;;;11.33;100.00;98193.41;6272185;20;2500307;-51
2024/04/24 10:38:56;;;;;;;;;18.67;15.00;;;;;11.46;100.00;98187.78;6273907;20;3532546;-51
2024/04/24 10:41:25;;;;;;;;;18.00;18.00;;;;;11.51;100.00;98192.78;6274619;20;2833055;-50
2024/04/24 10:43:52;;;;;;;;;17.00;17.00;;;;;11.29;100.00;98199.19;6304595;20;2833633;-49
2024/04/24 10:46:20;;;;;;;;;15.67;15.67;;;;;10.94;100.00;98193.22;6272944;20;3552337;-52
2024/04/24 10:48:58;;;;;;;;;10.00;8.00;;;;;10.60;100.00;98192.63;6280039;20;2757637;-54
2024/04/24 10:51:35;;;;;;;;;9.20;9.20;;;;;10.20;100.00;98198.66;6298886;20;2753475;-51
2024/04/24 10:54:14;;;;;;;;;7.50;7.00;;;;;10.15;100.00;98208.91;6280388;20;2746118;-50
2024/04/24 10:56:43;;;;;;;;;17.33;14.67;;;;;10.14;100.00;98204.53;6280362;20;3539824;-52
2024/04/24 10:59:11;;;;;;;;;17.50;14.00;;;;;10.08;100.00;98203.22;6306372;20;2812903;-49
2024/04/24 11:01:45;;;;;;;;;12.00;12.00;;;;;10.13;100.00;98210.88;6277381;20;3515955;-52
2024/04/24 11:04:15;;;;;;;;;11.00;11.00;;;;;10.16;100.00;98217.81;6309993;20;2789864;-51
2024/04/24 11:06:42;;;;;;;;;12.00;10.00;;;;;10.15;100.00;98214.28;6314112;20;2784651;-54
2024/04/24 11:09:10;;;;;;;;;10.67;10.67;;;;;9.91;100.00;98216.31;6276503;20;2792045;-50